Time;durP1;ratioP1;P1;durP2;ratioP2;P2;SDS_P1;SDS_P2;PMS_P1;PMS_P2;Temp;Humidity;BMP_temperature;BMP_pressure;BME280_temperature;BME280_humidity;BME280_pressure;Samples;Min_cycle;Max_cycle;Signal;HPM_P1;HPM_P2
2022/01/11 00:00:21;;;;;;;1241.13;780.17;;;1.00;99.90;;;;;;5054688;28;20482;-84
2022/01/11 00:02:57;;;;;;;1198.97;793.63;;;0.80;99.90;;;;;;5054402;28;20455;-85
2022/01/11 00:05:32;;;;;;;1108.93;788.63;;;0.80;99.90;;;;;;5054388;28;20494;-84
2022/01/11 00:08:07;;;;;;;1147.20;787.10;;;0.90;99.90;;;;;;5054362;28;20512;-84
2022/01/11 00:10:46;;;;;;;1254.23;781.70;;;0.80;99.90;;;;;;5054583;28;20952;-85
2022/01/11 00:13:28;;;;;;;1147.07;778.37;;;0.80;99.90;;;;;;5054188;28;20983;-84
2022/01/11 00:19:05;;;;;;;1193.27;801.03;;;0.90;99.90;;;;;;5053940;28;20522;-84
2022/01/11 00:21:48;;;;;;;1132.93;793.47;;;0.80;99.90;;;;;;5054921;28;20459;-85
2022/01/11 00:24:30;;;;;;;1175.00;782.63;;;0.80;99.90;;;;;;5055142;28;20483;-85
2022/01/11 00:27:07;;;;;;;1123.93;776.43;;;0.90;99.90;;;;;;5054827;28;20463;-85
2022/01/11 00:30:00;;;;;;;;;;;;;;;;;;;;;
2022/01/11 00:35:56;;;;;;;1120.37;770.70;;;0.80;99.90;;;;;;5052390;28;21002;-85
2022/01/11 00:39:03;;;;;;;1076.77;770.20;;;0.80;99.90;;;;;;5054335;28;20941;-85
2022/01/11 00:41:47;;;;;;;1059.20;776.30;;;0.80;99.90;;;;;;5054822;28;20864;-84
2022/01/11 00:44:25;;;;;;;1112.43;779.40;;;0.80;99.90;;;;;;5054551;28;20455;-85
2022/01/11 00:47:02;;;;;;;1182.30;781.20;;;0.70;99.90;;;;;;5054603;28;20466;-85
2022/01/11 00:52:49;;;;;;;1160.07;787.80;;;0.70;99.90;;;;;;5052655;28;20443;-85
2022/01/11 00:55:57;;;;;;;1080.00;786.60;;;0.70;99.90;;;;;;5097579;22;20569;-86
2022/01/11 00:58:33;;;;;;;1050.50;791.50;;;0.80;99.90;;;;;;5073853;28;20504;-85
2022/01/11 01:01:17;;;;;;;936.43;782.77;;;0.70;99.90;;;;;;5074322;28;20457;-85
2022/01/11 01:04:22;;;;;;;1064.07;800.53;;;0.70;99.90;;;;;;5074006;28;20451;-85
2022/01/11 01:06:55;;;;;;;984.60;781.33;;;0.60;99.90;;;;;;5054445;28;21032;-86
2022/01/11 01:10:01;;;;;;;1070.13;781.20;;;0.60;99.90;;;;;;5053830;28;20445;-85
2022/01/11 01:13:19;;;;;;;1086.07;782.17;;;0.60;99.90;;;;;;5054176;28;20494;-85
2022/01/11 01:19:04;;;;;;;;;;;;;;;;;;;;;
2022/01/11 01:21:54;;;;;;;1026.63;787.60;;;0.70;99.90;;;;;;5052958;28;21237;-85
2022/01/11 01:27:37;;;;;;;1083.93;783.93;;;0.50;99.90;;;;;;5049836;28;20447;-85
2022/01/11 01:30:50;;;;;;;1060.83;788.83;;;0.60;99.90;;;;;;5053480;28;20456;-85
2022/01/11 01:33:40;;;;;;;994.10;792.50;;;0.50;99.90;;;;;;5053549;28;20448;-85
2022/01/11 01:39:19;;;;;;;984.87;778.47;;;0.60;99.90;;;;;;5053251;28;20342;-83
2022/01/11 01:42:02;;;;;;;1048.67;790.43;;;0.60;99.90;;;;;;5054178;28;20460;-85
2022/01/11 01:44:55;;;;;;;1084.53;802.73;;;0.60;99.90;;;;;;5053869;28;20563;-84
2022/01/11 01:47:36;;;;;;;975.87;786.70;;;0.60;99.90;;;;;;5054188;28;20448;-85
2022/01/11 01:50:21;;;;;;;1027.73;784.13;;;0.60;99.90;;;;;;5053661;28;20458;-85
2022/01/11 01:53:11;;;;;;;;;;;;;;;;;;;;;
2022/01/11 01:56:05;;;;;;;1024.33;796.77;;;0.70;99.90;;;;;;5053647;28;21035;-85
2022/01/11 01:58:45;;;;;;;1021.77;789.77;;;0.60;99.90;;;;;;5053669;28;20448;-85
2022/01/11 02:01:34;;;;;;;;;;;;;;;;;;;;;
2022/01/11 02:04:09;;;;;;;966.87;778.07;;;0.70;99.90;;;;;;5053377;28;20439;-85
2022/01/11 02:09:43;;;;;;;983.25;795.33;;;0.80;99.90;;;;;;5052694;28;20478;-85
2022/01/11 02:12:20;;;;;;;1011.27;802.00;;;0.70;99.90;;;;;;5053867;28;20207;-85
2022/01/11 02:14:54;;;;;;;980.53;794.07;;;0.80;99.90;;;;;;5053897;28;20529;-85
2022/01/11 02:17:42;;;;;;;956.63;789.07;;;0.70;99.90;;;;;;5057195;28;20485;-85
2022/01/11 02:20:20;;;;;;;933.13;780.03;;;0.80;99.90;;;;;;5056852;28;20475;-85
2022/01/11 02:22:56;;;;;;;950.20;780.53;;;0.80;99.90;;;;;;5057238;28;20479;-86
2022/01/11 02:25:40;;;;;;;999.00;803.53;;;0.70;99.90;;;;;;5057191;28;20601;-85
2022/01/11 02:28:43;;;;;;;1003.50;790.20;;;0.80;99.90;;;;;;5057223;28;20936;-84
2022/01/11 02:31:23;;;;;;;989.53;820.00;;;0.70;99.90;;;;;;5056576;28;20943;-85
2022/01/11 02:34:30;;;;;;;1009.80;810.90;;;0.80;99.90;;;;;;5056549;28;20966;-85
2022/01/11 02:37:00;;;;;;;1001.33;801.50;;;0.70;99.90;;;;;;5057023;28;20543;-85
2022/01/11 02:39:43;;;;;;;1017.80;808.50;;;0.80;99.90;;;;;;5056313;28;20255;-84
2022/01/11 02:42:23;;;;;;;1004.33;808.90;;;0.80;99.90;;;;;;5056886;28;20510;-85
2022/01/11 02:47:50;;;;;;;986.10;807.23;;;0.80;99.90;;;;;;5054601;28;20450;-85
2022/01/11 02:50:25;;;;;;;990.57;805.93;;;0.90;99.90;;;;;;5057471;28;20451;-85
2022/01/11 02:53:04;;;;;;;1054.80;818.37;;;0.80;99.90;;;;;;5057123;28;20837;-84
2022/01/11 02:56:03;;;;;;;1007.50;797.73;;;0.70;99.90;;;;;;5056520;28;20888;-84
2022/01/11 02:58:33;;;;;;;1055.33;799.57;;;0.70;99.90;;;;;;5056827;28;21004;-84
2022/01/11 03:01:07;;;;;;;1012.53;803.63;;;0.80;99.90;;;;;;5056325;28;20536;-85
2022/01/11 03:03:41;;;;;;;1059.47;804.77;;;0.80;99.90;;;;;;5055875;28;20455;-85
2022/01/11 03:06:20;;;;;;;1065.33;791.93;;;0.80;99.90;;;;;;5056989;28;20557;-84
2022/01/11 03:08:52;;;;;;;1044.37;807.30;;;0.70;99.90;;;;;;5056169;28;20451;-85
2022/01/11 03:11:34;;;;;;;1052.33;795.43;;;0.70;99.90;;;;;;5056513;28;20455;-85
2022/01/11 03:14:10;;;;;;;1061.63;813.80;;;0.80;99.90;;;;;;5057069;28;20455;-85
2022/01/11 03:16:40;;;;;;;1045.67;780.90;;;0.80;99.90;;;;;;5056779;28;20458;-85
2022/01/11 03:19:23;;;;;;;1101.97;793.03;;;0.70;99.90;;;;;;5056220;28;20530;-84
2022/01/11 03:22:08;;;;;;;953.90;787.03;;;0.70;99.90;;;;;;5056787;28;20455;-85
2022/01/11 03:24:49;;;;;;;1013.07;797.50;;;0.70;99.90;;;;;;5056016;28;20876;-85
2022/01/11 03:27:46;;;;;;;960.47;797.97;;;0.60;99.90;;;;;;5056544;28;20459;-84
2022/01/11 03:30:29;;;;;;;1048.77;808.17;;;0.60;99.90;;;;;;5055666;28;20498;-85
2022/01/11 03:33:00;;;;;;;1024.03;782.07;;;0.60;99.90;;;;;;5056730;28;20804;-84
2022/01/11 03:35:33;;;;;;;1016.77;796.60;;;0.70;99.90;;;;;;5055794;28;20864;-84
2022/01/11 03:38:12;;;;;;;1036.80;784.43;;;0.70;99.90;;;;;;5056407;28;20459;-85
2022/01/11 03:43:36;;;;;;;1199.83;794.47;;;0.70;99.90;;;;;;5055557;28;20456;-85
2022/01/11 03:46:11;;;;;;;1162.23;798.10;;;0.70;99.90;;;;;;5055708;28;20471;-85
2022/01/11 03:48:58;;;;;;;1156.50;804.47;;;0.60;99.90;;;;;;5055634;28;20537;-85
2022/01/11 03:51:35;;;;;;;1087.63;795.83;;;0.50;99.90;;;;;;5055629;28;20471;-85
2022/01/11 03:54:44;;;;;;;1047.70;793.00;;;0.50;99.90;;;;;;5055159;28;20451;-85
2022/01/11 03:57:32;;;;;;;1129.07;789.03;;;0.60;99.90;;;;;;5053583;28;20459;-85
2022/01/11 04:00:06;;;;;;;1057.30;785.00;;;0.50;99.90;;;;;;5055236;28;20505;-84
2022/01/11 04:02:50;;;;;;;1145.03;792.33;;;0.60;99.90;;;;;;5055907;28;20492;-84
2022/01/11 04:05:31;;;;;;;1020.80;793.80;;;0.60;99.90;;;;;;5055214;28;20478;-84
2022/01/11 04:08:13;;;;;;;1115.40;781.33;;;0.60;99.90;;;;;;5034601;28;20490;-85
2022/01/11 04:11:07;;;;;;;1054.07;770.23;;;0.60;99.90;;;;;;5035274;28;20603;-85
2022/01/11 04:13:45;;;;;;;977.90;775.40;;;0.70;99.90;;;;;;5034672;28;20464;-85
2022/01/11 04:16:31;;;;;;;1021.63;779.00;;;0.60;99.90;;;;;;5035402;28;20479;-85
2022/01/11 04:19:03;;;;;;;1067.60;783.73;;;0.70;99.90;;;;;;5035304;28;20510;-84
2022/01/11 04:21:38;;;;;;;1005.07;781.57;;;0.60;99.90;;;;;;5034713;28;20560;-85
2022/01/11 04:24:11;;;;;;;1109.70;784.73;;;0.70;99.90;;;;;;5035101;28;20510;-84
2022/01/11 04:30:10;;;;;;;998.73;785.13;;;0.70;99.90;;;;;;5032833;28;20539;-86
2022/01/11 04:32:53;;;;;;;1018.43;779.20;;;0.60;99.90;;;;;;5034885;28;20537;-85
2022/01/11 04:38:37;;;;;;;985.20;774.50;;;0.60;99.90;;;;;;5034176;28;20444;-85
2022/01/11 04:41:09;;;;;;;1060.67;768.03;;;0.60;99.90;;;;;;5034487;28;20472;-85
2022/01/11 04:43:54;;;;;;;1018.73;763.40;;;0.50;99.90;;;;;;5035049;28;20460;-85
2022/01/11 04:46:28;;;;;;;1050.53;759.37;;;0.50;99.90;;;;;;5035187;28;20475;-86
2022/01/11 04:49:26;;;;;;;1018.90;764.53;;;0.50;99.90;;;;;;5034891;28;20803;-86
2022/01/11 04:51:58;;;;;;;1083.57;785.27;;;0.50;99.90;;;;;;5035058;28;20462;-83
2022/01/11 04:54:49;;;;;;;1118.70;778.20;;;0.50;99.90;;;;;;5034438;28;21022;-84
2022/01/11 04:57:32;;;;;;;1087.23;765.37;;;0.40;99.90;;;;;;5035100;28;20548;-83
2022/01/11 05:00:37;;;;;;;1028.00;774.53;;;0.40;99.90;;;;;;5032804;28;20499;-83
2022/01/11 05:03:18;;;;;;;1099.90;768.83;;;0.40;99.90;;;;;;5034899;28;20460;-83
2022/01/11 05:06:05;;;;;;;990.90;770.60;;;0.30;99.90;;;;;;5034784;28;20934;-83
2022/01/11 05:09:12;;;;;;;1087.37;772.00;;;0.30;99.90;;;;;;5034820;28;20984;-83
2022/01/11 05:11:52;;;;;;;1076.33;748.70;;;0.40;99.90;;;;;;5034920;28;20456;-83
2022/01/11 05:14:32;;;;;;;1085.40;743.50;;;0.40;99.90;;;;;;5034478;28;20952;-83
2022/01/11 05:17:23;;;;;;;1146.43;770.70;;;0.50;99.90;;;;;;5034449;28;20831;-83
2022/01/11 05:19:59;;;;;;;1049.70;755.33;;;0.40;99.90;;;;;;5034441;28;20476;-81
2022/01/11 05:22:47;;;;;;;1076.97;752.73;;;0.30;99.90;;;;;;5034557;28;21025;-82
2022/01/11 05:25:28;;;;;;;1060.80;741.23;;;0.40;99.90;;;;;;5033830;28;20468;-81
2022/01/11 05:28:00;;;;;;;1173.50;776.43;;;0.40;99.90;;;;;;5034933;28;20540;-82
2022/01/11 05:30:37;;;;;;;1114.13;775.17;;;0.40;99.90;;;;;;5034540;28;20458;-82
2022/01/11 05:33:13;;;;;;;1146.60;772.07;;;0.30;99.90;;;;;;5034412;28;20598;-82
2022/01/11 05:35:42;;;;;;;1108.77;764.47;;;0.40;99.90;;;;;;5034487;28;20476;-82
2022/01/11 05:38:18;;;;;;;1012.05;753.47;;;0.40;99.90;;;;;;5034046;28;20510;-81
2022/01/11 05:47:43;;;;;;;1082.57;766.83;;;0.40;99.90;;;;;;4981320;28;20956;-82
2022/01/11 05:50:38;;;;;;;1148.87;764.90;;;0.40;99.90;;;;;;5035102;28;20559;-82
2022/01/11 05:54:04;;;;;;;1062.20;760.23;;;0.40;99.90;;;;;;4957585;29;20467;-82
2022/01/11 05:56:34;;;;;;;1032.50;746.20;;;0.50;99.90;;;;;;4956923;29;20463;-81
2022/01/11 05:59:11;;;;;;;1017.30;752.23;;;0.60;99.90;;;;;;4978887;28;20459;-82
2022/01/11 06:02:07;;;;;;;1052.17;759.33;;;0.50;99.90;;;;;;5036813;28;20472;-81
2022/01/11 06:04:54;;;;;;;1032.83;766.37;;;0.40;99.90;;;;;;5037690;28;20491;-82
2022/01/11 06:07:55;;;;;;;1032.23;751.87;;;0.50;99.90;;;;;;5037243;28;20797;-82
2022/01/11 06:10:41;;;;;;;1051.07;750.03;;;0.50;99.90;;;;;;5036145;28;20497;-82
2022/01/11 06:13:57;;;;;;;1120.37;767.93;;;0.40;99.90;;;;;;5036999;28;20461;-82
2022/01/11 06:16:40;;;;;;;1103.03;757.23;;;0.40;99.90;;;;;;5037441;28;20475;-82
2022/01/11 06:19:15;;;;;;;1051.07;780.77;;;0.40;99.90;;;;;;5037445;28;20452;-81
2022/01/11 06:21:45;;;;;;;1086.37;768.57;;;0.40;99.90;;;;;;5037283;28;20830;-83
2022/01/11 06:24:13;;;;;;;975.93;760.70;;;0.30;99.90;;;;;;5036742;28;20452;-82
2022/01/11 06:26:41;;;;;;;945.72;756.58;;;0.30;99.90;;;;;;5037120;28;20452;-82
2022/01/11 06:29:10;;;;;;;1030.23;753.47;;;0.30;99.90;;;;;;5036788;28;20205;-82
2022/01/11 06:31:37;;;;;;;973.17;755.80;;;0.30;99.90;;;;;;5036930;28;20447;-82
2022/01/11 06:34:04;;;;;;;1020.07;758.20;;;0.30;99.90;;;;;;5036942;28;20464;-82
2022/01/11 06:36:31;;;;;;;905.07;762.17;;;0.30;99.90;;;;;;5036823;28;20456;-82
2022/01/11 06:38:58;;;;;;;936.37;762.10;;;0.30;99.90;;;;;;5036313;28;20807;-82
2022/01/11 06:41:25;;;;;;;918.77;762.23;;;0.30;99.90;;;;;;5036379;28;20482;-81
2022/01/11 06:43:54;;;;;;;899.10;769.70;;;0.30;99.90;;;;;;5036730;28;20460;-81
2022/01/11 06:46:24;;;;;;;979.20;767.60;;;0.20;99.90;;;;;;5037007;28;20476;-83
2022/01/11 06:48:51;;;;;;;982.63;763.90;;;0.30;99.90;;;;;;5036912;28;20551;-81
2022/01/11 06:51:18;;;;;;;1014.10;784.40;;;0.30;99.90;;;;;;5036246;28;20448;-81
2022/01/11 06:53:44;;;;;;;1020.80;785.13;;;0.30;99.90;;;;;;5035835;28;20459;-81
2022/01/11 06:56:11;;;;;;;969.23;786.93;;;0.20;99.90;;;;;;5037270;28;20484;-82
2022/01/11 06:58:38;;;;;;;936.60;782.83;;;0.20;99.90;;;;;;5035855;28;20957;-82
2022/01/11 07:01:05;;;;;;;935.43;780.13;;;0.20;99.90;;;;;;5036144;28;20472;-81
2022/01/11 07:03:33;;;;;;;963.90;785.63;;;0.20;99.90;;;;;;5035656;28;20456;-81
2022/01/11 07:06:00;;;;;;;993.90;798.03;;;0.20;99.90;;;;;;5036187;28;20472;-81
2022/01/11 07:08:27;;;;;;;995.40;792.50;;;0.10;99.90;;;;;;5035993;28;20463;-80
2022/01/11 07:11:05;;;;;;;1019.43;789.43;;;0.20;99.90;;;;;;5035776;28;20448;-81
2022/01/11 07:13:32;;;;;;;1026.17;807.57;;;0.10;99.90;;;;;;5035733;28;20460;-81
2022/01/11 07:15:58;;;;;;;981.00;804.00;;;0.10;99.90;;;;;;5035025;28;20476;-81
2022/01/11 07:18:25;;;;;;;1052.47;800.53;;;0.20;99.90;;;;;;5035227;28;20463;-81
2022/01/11 07:21:06;;;;;;;1013.70;796.20;;;0.30;99.90;;;;;;5035668;28;20995;-81
2022/01/11 07:23:38;;;;;;;999.57;807.97;;;0.30;99.90;;;;;;5035100;28;20487;-81
2022/01/11 07:26:07;;;;;;;1114.40;821.83;;;0.30;99.90;;;;;;5035290;28;20522;-81
2022/01/11 07:28:37;;;;;;;983.13;822.20;;;0.20;99.90;;;;;;5036124;28;21014;-80
2022/01/11 07:31:08;;;;;;;1050.50;814.38;;;0.30;99.90;;;;;;5035103;28;20510;-81
2022/01/11 07:33:38;;;;;;;976.87;813.43;;;0.20;99.90;;;;;;5035304;28;20205;-81
2022/01/11 07:36:06;;;;;;;945.70;812.27;;;0.20;99.90;;;;;;5035583;28;20503;-81
2022/01/11 07:38:39;;;;;;;918.53;814.23;;;0.10;99.90;;;;;;5035938;28;20921;-80
2022/01/11 07:41:07;;;;;;;985.50;809.43;;;0.20;99.90;;;;;;5035722;28;20480;-81
2022/01/11 07:43:34;;;;;;;974.90;806.10;;;0.20;99.90;;;;;;5035493;28;20456;-81
2022/01/11 07:46:04;;;;;;;1040.63;814.90;;;0.20;99.90;;;;;;5035341;28;20483;-80
2022/01/11 07:48:40;;;;;;;1092.90;810.73;;;0.20;99.90;;;;;;5035357;28;20456;-81
2022/01/11 07:51:08;;;;;;;1027.13;813.13;;;0.20;99.90;;;;;;5035684;28;20980;-81
2022/01/11 07:53:39;;;;;;;1054.77;801.13;;;0.30;99.90;;;;;;5035520;28;20198;-81
2022/01/11 07:56:08;;;;;;;1079.80;812.30;;;0.20;99.90;;;;;;5034726;28;20999;-81
2022/01/11 07:58:35;;;;;;;1060.93;808.10;;;0.30;99.90;;;;;;5034340;28;20967;-80
2022/01/11 08:01:08;;;;;;;1109.67;810.23;;;0.30;99.90;;;;;;5034681;28;20534;-81
2022/01/11 08:03:40;;;;;;;1104.23;820.00;;;0.30;99.90;;;;;;5034672;28;21001;-80
2022/01/11 08:06:13;;;;;;;1082.10;805.80;;;0.30;99.90;;;;;;5034571;28;20534;-80
2022/01/11 08:08:45;;;;;;;1081.65;837.42;;;0.40;99.90;;;;;;5034392;28;20517;-81
2022/01/11 08:11:15;;;;;;;1020.93;818.17;;;0.30;99.90;;;;;;5033184;28;20257;-81
2022/01/11 08:13:47;;;;;;;1075.23;843.57;;;0.40;99.90;;;;;;5033651;28;20456;-81
2022/01/11 08:16:14;;;;;;;1155.20;844.97;;;0.30;99.90;;;;;;5033949;28;20480;-80
2022/01/11 08:18:43;;;;;;;1088.83;843.03;;;0.40;99.90;;;;;;5033982;28;20459;-80
2022/01/11 08:21:13;;;;;;;1126.80;851.60;;;0.50;99.90;;;;;;5033793;28;21047;-81
2022/01/11 08:23:40;;;;;;;1075.20;845.43;;;0.40;99.90;;;;;;5034047;28;21010;-80
2022/01/11 08:26:07;;;;;;;1053.90;861.73;;;0.40;99.90;;;;;;5034289;28;20854;-81
2022/01/11 08:28:46;;;;;;;1072.57;846.07;;;0.50;99.90;;;;;;5033764;28;20460;-80
2022/01/11 08:31:19;;;;;;;1038.80;850.80;;;0.50;99.90;;;;;;5034565;28;20487;-81
2022/01/11 08:33:48;;;;;;;1056.50;861.03;;;0.50;99.90;;;;;;5033881;28;20460;-81
2022/01/11 08:36:16;;;;;;;1041.20;854.43;;;0.60;99.90;;;;;;5033813;28;20507;-81
2022/01/11 08:38:53;;;;;;;1104.80;842.60;;;0.50;99.90;;;;;;5033513;28;20460;-81
2022/01/11 08:41:25;;;;;;;1114.97;837.67;;;0.60;99.90;;;;;;5033072;28;20510;-81
2022/01/11 08:43:52;;;;;;;1153.13;854.40;;;0.50;99.90;;;;;;5032503;28;20487;-81
2022/01/11 08:46:22;;;;;;;1101.10;843.80;;;0.80;99.90;;;;;;5033154;28;20555;-81
2022/01/11 08:48:49;;;;;;;1071.70;864.17;;;0.70;99.90;;;;;;5033361;28;20452;-81
2022/01/11 08:51:20;;;;;;;1069.17;863.17;;;0.80;99.90;;;;;;5034007;28;20483;-81
2022/01/11 08:53:50;;;;;;;1089.20;858.80;;;0.80;99.90;;;;;;5033940;28;20458;-81
2022/01/11 08:56:17;;;;;;;1073.03;862.60;;;0.80;99.90;;;;;;5033327;28;20480;-81
2022/01/11 08:58:45;;;;;;;1107.07;867.53;;;0.80;99.90;;;;;;5033209;28;20799;-80
2022/01/11 09:01:15;;;;;;;1108.50;873.00;;;0.80;99.90;;;;;;5034017;28;20476;-80
2022/01/11 09:03:48;;;;;;;998.10;871.10;;;0.80;99.90;;;;;;5033804;28;20885;-81
2022/01/11 09:06:16;;;;;;;1066.67;853.10;;;0.80;99.90;;;;;;5033540;28;20472;-81
2022/01/11 09:08:44;;;;;;;999.57;840.17;;;0.80;99.90;;;;;;5033192;28;21025;-81
2022/01/11 09:11:11;;;;;;;1017.67;848.70;;;0.90;99.90;;;;;;5034124;28;20945;-80
2022/01/11 09:13:39;;;;;;;1055.30;854.03;;;0.80;99.90;;;;;;5033217;28;20568;-80
2022/01/11 09:16:06;;;;;;;1096.30;858.07;;;0.80;99.90;;;;;;5033140;28;20547;-81
2022/01/11 09:18:34;;;;;;;1099.47;859.90;;;0.80;99.90;;;;;;5032859;28;21040;-80
2022/01/11 09:21:03;;;;;;;1067.50;863.83;;;0.90;99.90;;;;;;5032749;28;20502;-80
2022/01/11 09:23:30;;;;;;;1052.27;851.90;;;0.90;99.90;;;;;;5032993;28;20471;-81
2022/01/11 09:26:01;;;;;;;1061.87;850.40;;;0.80;99.90;;;;;;5032239;28;20479;-80
2022/01/11 09:28:31;;;;;;;983.83;854.50;;;0.90;99.90;;;;;;5032535;28;20534;-81
2022/01/11 09:30:58;;;;;;;1052.67;862.00;;;1.10;99.90;;;;;;5032569;28;20544;-80
2022/01/11 09:33:27;;;;;;;1004.87;861.17;;;1.00;99.90;;;;;;5032348;28;20890;-80
2022/01/11 09:36:01;;;;;;;975.53;855.53;;;1.00;99.90;;;;;;5031549;28;20522;-81
2022/01/11 09:38:43;;;;;;;1027.30;851.37;;;1.10;99.90;;;;;;5032907;28;20838;-81
2022/01/11 09:41:18;;;;;;;960.03;840.03;;;1.00;99.90;;;;;;5033001;28;20538;-81
2022/01/11 09:44:07;;;;;;;996.20;840.07;;;1.00;99.90;;;;;;5033183;28;20462;-81
2022/01/11 09:46:47;;;;;;;966.33;859.27;;;1.10;99.90;;;;;;5032793;28;20474;-81
2022/01/11 09:49:16;;;;;;;1001.77;840.63;;;1.10;99.90;;;;;;5030633;28;20484;-81
2022/01/11 09:51:48;;;;;;;1083.00;840.67;;;1.10;99.90;;;;;;5032675;28;20511;-82
2022/01/11 09:54:29;;;;;;;1051.53;840.67;;;1.20;99.90;;;;;;5031856;28;20456;-81
2022/01/11 09:57:09;;;;;;;972.13;822.97;;;1.30;99.90;;;;;;5031642;28;20463;-82
2022/01/11 09:59:41;;;;;;;1019.17;810.93;;;1.30;99.90;;;;;;5031146;28;20448;-82
2022/01/11 10:02:33;;;;;;;1044.53;798.63;;;1.40;99.90;;;;;;5031504;28;20525;-82
2022/01/11 10:05:04;;;;;;;909.23;793.73;;;1.40;99.90;;;;;;5031888;28;20855;-82
2022/01/11 10:07:55;;;;;;;;;;;;;;;;;;;;;
2022/01/11 10:13:40;;;;;;;1059.37;809.70;;;1.70;99.90;;;;;;5027941;28;20467;-82
2022/01/11 10:16:24;;;;;;;919.43;800.37;;;1.80;99.90;;;;;;5031534;28;20479;-81
2022/01/11 10:19:02;;;;;;;936.33;782.30;;;1.80;99.90;;;;;;5031724;28;20531;-82
2022/01/11 10:21:49;;;;;;;;;;;;;;;;;;;;;
2022/01/11 10:24:45;;;;;;;964.30;767.17;;;1.80;99.90;;;;;;5031142;28;20455;-82
2022/01/11 10:27:39;;;;;;;935.43;774.10;;;2.00;99.90;;;;;;5031462;28;20866;-82
2022/01/11 10:33:22;;;;;;;878.00;758.03;;;2.00;99.90;;;;;;5030981;28;20448;-82
2022/01/11 10:36:02;;;;;;;846.57;753.47;;;2.10;99.90;;;;;;5031459;28;20471;-82
2022/01/11 10:38:47;;;;;;;838.67;744.70;;;2.00;99.90;;;;;;5035433;28;20883;-82
2022/01/11 10:41:59;;;;;;;843.87;728.17;;;2.10;99.90;;;;;;5034859;28;20486;-82
2022/01/11 10:45:03;;;;;;;809.00;716.60;;;2.20;99.90;;;;;;5034783;28;20488;-82
2022/01/11 10:47:46;;;;;;;835.10;702.13;;;2.30;99.90;;;;;;4984117;28;20460;-81
2022/01/11 10:50:19;;;;;;;787.13;702.00;;;2.30;99.90;;;;;;5034758;28;20506;-81
2022/01/11 10:52:49;;;;;;;798.80;711.03;;;2.40;99.90;;;;;;5034626;28;20445;-81
2022/01/11 10:55:27;;;;;;;791.67;706.03;;;2.30;99.90;;;;;;5034238;28;20474;-81
2022/01/11 10:58:00;;;;;;;780.37;703.70;;;2.30;99.90;;;;;;5034699;28;20451;-82
2022/01/11 11:00:31;;;;;;;774.57;695.93;;;2.60;99.90;;;;;;5034566;28;20459;-82
2022/01/11 11:03:13;;;;;;;782.23;699.37;;;2.60;99.90;;;;;;5034506;28;20907;-81
2022/01/11 11:05:47;;;;;;;804.27;717.50;;;2.70;99.90;;;;;;5034364;28;20483;-81
2022/01/11 11:08:30;;;;;;;815.63;709.63;;;2.60;99.90;;;;;;5034931;28;20436;-81
2022/01/11 11:11:09;;;;;;;782.90;705.13;;;2.70;99.90;;;;;;5034542;28;20461;-81
2022/01/11 11:14:01;;;;;;;780.33;701.80;;;2.80;99.90;;;;;;5034193;28;20944;-81
2022/01/11 11:19:52;;;;;;;841.33;716.10;;;2.90;99.90;;;;;;5034416;28;20535;-83
2022/01/11 11:26:37;;;;;;;;;;;;;;;;;;;;;
2022/01/11 11:33:06;;;;;;;789.87;713.23;;;3.00;99.90;;;;;;4948890;28;20454;-85
2022/01/11 11:38:55;;;;;;;799.47;722.00;;;3.10;99.90;;;;;;5022406;28;20961;-81
2022/01/11 11:41:26;;;;;;;790.73;721.73;;;3.10;99.90;;;;;;5035546;28;20463;-82
2022/01/11 11:44:11;;;;;;;771.17;709.83;;;3.30;99.90;;;;;;5035063;28;20530;-82
2022/01/11 11:46:48;;;;;;;741.00;684.83;;;3.20;99.90;;;;;;5035327;28;20480;-82
2022/01/11 11:49:18;;;;;;;770.23;705.63;;;3.40;99.90;;;;;;5034741;28;20448;-82
2022/01/11 11:51:53;;;;;;;734.47;664.60;;;3.40;99.90;;;;;;5035015;28;20457;-82
2022/01/11 11:54:25;;;;;;;733.83;661.53;;;3.20;99.90;;;;;;5035412;28;20455;-82
2022/01/11 11:57:01;;;;;;;698.27;628.33;;;3.30;99.90;;;;;;5034496;28;20468;-81
2022/01/11 11:59:28;;;;;;;714.50;660.27;;;3.10;99.90;;;;;;5034530;28;20456;-81
2022/01/11 12:01:58;;;;;;;755.17;692.77;;;3.20;99.90;;;;;;5034967;28;20933;-83
2022/01/11 12:04:53;;;;;;;769.60;706.90;;;3.40;99.90;;;;;;5034660;28;20480;-82
2022/01/11 12:07:33;;;;;;;762.80;703.60;;;3.60;99.90;;;;;;5034809;28;20452;-81
2022/01/11 12:10:06;;;;;;;718.00;661.87;;;3.70;99.90;;;;;;5034480;28;20452;-82
2022/01/11 12:12:54;;;;;;;765.80;703.37;;;3.60;99.90;;;;;;5034661;28;20979;-83
2022/01/11 12:15:42;;;;;;;747.93;694.80;;;3.80;99.90;;;;;;5034757;28;20472;-82
2022/01/11 12:18:18;;;;;;;757.67;700.50;;;3.60;99.90;;;;;;5030605;28;20453;-81
2022/01/11 12:20:51;;;;;;;738.23;681.43;;;3.70;99.90;;;;;;5034365;28;20551;-82
2022/01/11 12:23:39;;;;;;;725.60;675.73;;;3.90;99.90;;;;;;5034753;28;20476;-82
2022/01/11 12:26:14;;;;;;;707.20;659.23;;;3.70;99.90;;;;;;5034763;28;20483;-83
2022/01/11 12:28:42;;;;;;;690.73;636.57;;;3.90;99.90;;;;;;5034644;28;20550;-82
2022/01/11 12:31:28;;;;;;;650.13;599.50;;;3.70;99.90;;;;;;5034274;28;20967;-83
2022/01/11 12:34:02;;;;;;;671.20;624.03;;;3.60;99.90;;;;;;5034753;28;20460;-82
2022/01/11 12:36:57;;;;;;;694.70;650.90;;;3.50;99.90;;;;;;5034480;28;20526;-82
2022/01/11 12:39:25;;;;;;;721.27;677.80;;;3.50;99.90;;;;;;5034435;28;20451;-82
2022/01/11 12:41:59;;;;;;;709.40;663.47;;;3.40;99.90;;;;;;5034218;28;20923;-82
2022/01/11 12:44:33;;;;;;;736.57;687.13;;;3.20;99.90;;;;;;5034584;28;20472;-82
2022/01/11 12:47:02;;;;;;;746.07;696.80;;;3.30;99.90;;;;;;5034716;28;20521;-81
2022/01/11 12:49:40;;;;;;;757.07;703.00;;;3.40;99.90;;;;;;5034744;28;20960;-83
2022/01/11 12:54:57;;;;;;;754.17;705.27;;;3.50;99.90;;;;;;5035598;28;20476;-82
2022/01/11 12:57:30;;;;;;;775.73;722.87;;;3.30;99.90;;;;;;5034278;28;20464;-83
2022/01/11 13:00:13;;;;;;;776.23;720.17;;;3.40;99.90;;;;;;5033603;28;20544;-83
2022/01/11 13:02:40;;;;;;;787.97;734.10;;;3.40;99.90;;;;;;5034065;28;20842;-82
2022/01/11 13:05:17;;;;;;;792.10;734.50;;;3.60;99.90;;;;;;5034149;28;20472;-82
2022/01/11 13:07:58;;;;;;;795.50;739.40;;;4.00;99.90;;;;;;5034930;28;20463;-82
2022/01/11 13:10:28;;;;;;;757.47;707.07;;;4.20;99.90;;;;;;5033286;28;20941;-82
2022/01/11 13:13:08;;;;;;;723.00;675.30;;;4.40;99.90;;;;;;5033714;28;20460;-83
2022/01/11 13:15:45;;;;;;;661.63;618.97;;;4.20;99.90;;;;;;5033794;28;20475;-83
2022/01/11 13:18:30;;;;;;;640.03;600.83;;;4.20;99.90;;;;;;5033558;28;20463;-83
2022/01/11 13:21:07;;;;;;;527.30;494.47;;;4.50;99.90;;;;;;5032641;28;20956;-83
2022/01/11 13:23:44;;;;;;;493.43;464.53;;;4.40;99.90;;;;;;5033828;28;20475;-83
2022/01/11 13:26:26;;;;;;;442.97;416.40;;;4.50;99.90;;;;;;5032972;28;20905;-84
2022/01/11 13:29:09;;;;;;;452.97;426.97;;;4.60;99.90;;;;;;5033647;28;20462;-82
2022/01/11 13:31:40;;;;;;;336.43;312.90;;;4.80;99.90;;;;;;5032857;28;20968;-83
2022/01/11 13:34:28;;;;;;;227.43;209.00;;;4.90;99.90;;;;;;5034363;28;20544;-81
2022/01/11 13:37:01;;;;;;;312.33;290.95;;;4.90;99.90;;;;;;5033135;28;20481;-82
2022/01/11 13:39:46;;;;;;;259.20;238.50;;;4.90;99.90;;;;;;5033887;28;20198;-83
2022/01/11 13:45:18;;;;;;;181.87;165.40;;;5.20;99.90;;;;;;5033936;28;20478;-83
2022/01/11 13:51:08;;;;;;;200.30;184.27;;;4.90;99.90;;;;;;5024535;28;20460;-83
2022/01/11 13:53:55;;;;;;;249.90;233.13;;;4.90;99.90;;;;;;5033842;28;20475;-83
2022/01/11 13:56:51;;;;;;;316.80;299.60;;;4.60;99.90;;;;;;5033726;28;20475;-83
2022/01/11 13:59:42;;;;;;;421.27;400.27;;;4.30;99.90;;;;;;5033407;28;20448;-83
2022/01/11 14:02:31;;;;;;;492.30;466.77;;;4.30;99.90;;;;;;5033509;28;20488;-83
2022/01/11 14:05:42;;;;;;;;;;;;;;;;;;;;;
2022/01/11 14:08:12;;;;;;;628.77;597.37;;;4.20;99.90;;;;;;4968427;28;20466;-82
2022/01/11 14:11:04;;;;;;;;;;;;;;;;;;;;;
2022/01/11 14:14:13;;;;;;;759.33;715.03;;;4.00;99.90;;;;;;5036699;28;20956;-83
2022/01/11 14:17:33;;;;;;;;;;;;;;;;;;;;;
2022/01/11 14:20:21;;;;;;;810.30;757.70;;;3.90;99.90;;;;;;5036676;28;20444;-83
2022/01/11 14:23:33;;;;;;;825.77;771.47;;;3.90;99.90;;;;;;5036956;28;20503;-83
2022/01/11 14:26:28;;;;;;;826.33;770.67;;;4.00;99.90;;;;;;5036713;28;21043;-83
2022/01/11 14:29:13;;;;;;;824.50;768.40;;;4.00;99.90;;;;;;5036815;28;20452;-85
2022/01/11 14:31:43;;;;;;;833.77;776.27;;;4.20;99.90;;;;;;5036784;28;20463;-83